Main page
METAR-TAF:

METAR-TAF

Airports :

Valencia Airport

Valencia, Spain

latitude: 39-30N, longitude: 000-28W, elevation: 69 m

Current weather observation

The report was made 41 minutes ago, at 05:00 UTC
Wind 3 kt from the West
Temperature 19°C
Humidity 68%
Pressure 1019 hPa
Visibility 10 km or more
Few clouds at a height of 3000 ft

METAR: LEVC 240500Z 28003KT 9999 FEW030 19/13 Q1019 NOSIG

Time: 07:41 (05:41 UTC)

Forecast

The report was made 41 minutes ago, at 05:00 UTC
Forecast valid from 24 at 06 UTC to 25 at 06 UTC
Wind 3 kt from variable directions
Visibility 10 km or more
Few clouds at a height of 3000 ft
Becoming
from 24 at 10 UTC to 24 at 12 UTC
Wind 10 kt from the East/Southeast
Becoming
from 24 at 18 UTC to 24 at 20 UTC
Wind 3 kt from variable directions

TAF: LEVC 240500Z 2406/2506 VRB03KT 9999 FEW030 TX31/2412Z TN18/2406Z BECMG 2410/2412 11010KT BECMG 2418/2420 VRB03KT

Weather observations and forecasts of more than 4000 airports (METAR and TAF reports).

The available stations are represented by yellow and red dots on the map.

Hover mouse over dot to see the name of the station.

Then click to see weather observations and forecasts.

To change the map : click on the green buttons with a black cross to zoom in, on the green button with a dash to zoom out, or on the green arrows for adjacent maps.


METAR-TAF: